sensor_id;sensor_type;location;lat;lon;timestamp;P1;durP1;ratioP1;P2;durP2;ratioP2
71490;SDS011;59307;50.060;9.150;2023-10-08T00:00:43;6.18;;;2.83;;
71490;SDS011;59307;50.060;9.150;2023-10-08T00:03:11;8.15;;;3.00;;
71490;SDS011;59307;50.060;9.150;2023-10-08T00:05:36;8.37;;;3.10;;
71490;SDS011;59307;50.060;9.150;2023-10-08T00:08:02;8.57;;;3.10;;
71490;SDS011;59307;50.060;9.150;2023-10-08T00:10:29;6.65;;;2.60;;
71490;SDS011;59307;50.060;9.150;2023-10-08T00:12:59;7.63;;;3.03;;
71490;SDS011;59307;50.060;9.150;2023-10-08T00:15:24;9.10;;;2.97;;
71490;SDS011;59307;50.060;9.150;2023-10-08T00:17:50;7.70;;;3.00;;
71490;SDS011;59307;50.060;9.150;2023-10-08T00:20:18;8.45;;;3.20;;
71490;SDS011;59307;50.060;9.150;2023-10-08T00:22:50;8.90;;;2.95;;
71490;SDS011;59307;50.060;9.150;2023-10-08T00:25:15;7.47;;;3.20;;
71490;SDS011;59307;50.060;9.150;2023-10-08T00:27:41;10.13;;;3.17;;
71490;SDS011;59307;50.060;9.150;2023-10-08T00:30:06;7.47;;;2.70;;
71490;SDS011;59307;50.060;9.150;2023-10-08T00:32:42;6.93;;;3.00;;
71490;SDS011;59307;50.060;9.150;2023-10-08T00:35:08;9.63;;;3.20;;
71490;SDS011;59307;50.060;9.150;2023-10-08T00:37:37;11.32;;;3.08;;
71490;SDS011;59307;50.060;9.150;2023-10-08T00:40:02;8.07;;;2.80;;
71490;SDS011;59307;50.060;9.150;2023-10-08T00:42:30;13.20;;;3.17;;
71490;SDS011;59307;50.060;9.150;2023-10-08T00:44:56;7.03;;;2.80;;
71490;SDS011;59307;50.060;9.150;2023-10-08T00:47:21;8.13;;;3.23;;
71490;SDS011;59307;50.060;9.150;2023-10-08T00:49:51;8.63;;;3.08;;
71490;SDS011;59307;50.060;9.150;2023-10-08T00:52:29;8.43;;;3.20;;
71490;SDS011;59307;50.060;9.150;2023-10-08T00:54:55;7.70;;;3.00;;
71490;SDS011;59307;50.060;9.150;2023-10-08T00:57:29;8.23;;;3.27;;
71490;SDS011;59307;50.060;9.150;2023-10-08T00:59:55;8.80;;;3.22;;
71490;SDS011;59307;50.060;9.150;2023-10-08T01:02:24;9.07;;;3.33;;
71490;SDS011;59307;50.060;9.150;2023-10-08T01:04:52;10.30;;;3.10;;
71490;SDS011;59307;50.060;9.150;2023-10-08T01:07:17;7.97;;;3.00;;
71490;SDS011;59307;50.060;9.150;2023-10-08T01:09:43;6.82;;;2.58;;
71490;SDS011;59307;50.060;9.150;2023-10-08T01:12:16;9.68;;;2.95;;
71490;SDS011;59307;50.060;9.150;2023-10-08T01:14:45;9.05;;;3.65;;
71490;SDS011;59307;50.060;9.150;2023-10-08T01:17:12;9.90;;;3.40;;
71490;SDS011;59307;50.060;9.150;2023-10-08T01:19:45;11.10;;;3.35;;
71490;SDS011;59307;50.060;9.150;2023-10-08T01:22:15;7.82;;;3.10;;
71490;SDS011;59307;50.060;9.150;2023-10-08T01:24:46;10.52;;;3.20;;
71490;SDS011;59307;50.060;9.150;2023-10-08T01:27:13;9.95;;;3.40;;
71490;SDS011;59307;50.060;9.150;2023-10-08T01:29:45;7.67;;;3.13;;
71490;SDS011;59307;50.060;9.150;2023-10-08T01:32:10;5.63;;;2.80;;
71490;SDS011;59307;50.060;9.150;2023-10-08T01:34:41;6.93;;;3.10;;
71490;SDS011;59307;50.060;9.150;2023-10-08T01:37:10;7.75;;;3.30;;
71490;SDS011;59307;50.060;9.150;2023-10-08T01:39:37;7.70;;;2.90;;
71490;SDS011;59307;50.060;9.150;2023-10-08T01:42:07;11.88;;;3.65;;
71490;SDS011;59307;50.060;9.150;2023-10-08T01:44:40;8.43;;;2.83;;
71490;SDS011;59307;50.060;9.150;2023-10-08T01:47:05;7.60;;;3.33;;
71490;SDS011;59307;50.060;9.150;2023-10-08T01:49:31;8.23;;;3.13;;
71490;SDS011;59307;50.060;9.150;2023-10-08T01:51:58;8.40;;;2.95;;
71490;SDS011;59307;50.060;9.150;2023-10-08T01:54:23;7.73;;;3.07;;
71490;SDS011;59307;50.060;9.150;2023-10-08T01:56:51;8.40;;;2.90;;
71490;SDS011;59307;50.060;9.150;2023-10-08T01:59:16;9.20;;;3.10;;
71490;SDS011;59307;50.060;9.150;2023-10-08T02:01:42;14.33;;;3.67;;
71490;SDS011;59307;50.060;9.150;2023-10-08T02:04:08;10.30;;;3.60;;
71490;SDS011;59307;50.060;9.150;2023-10-08T02:06:34;7.93;;;3.33;;
71490;SDS011;59307;50.060;9.150;2023-10-08T02:09:00;9.53;;;3.13;;
71490;SDS011;59307;50.060;9.150;2023-10-08T02:11:31;6.13;;;2.72;;
71490;SDS011;59307;50.060;9.150;2023-10-08T02:13:57;8.35;;;3.42;;
71490;SDS011;59307;50.060;9.150;2023-10-08T02:16:22;7.63;;;2.90;;
71490;SDS011;59307;50.060;9.150;2023-10-08T02:18:47;9.20;;;3.37;;
71490;SDS011;59307;50.060;9.150;2023-10-08T02:21:13;11.73;;;3.17;;
71490;SDS011;59307;50.060;9.150;2023-10-08T02:23:38;7.60;;;2.93;;
71490;SDS011;59307;50.060;9.150;2023-10-08T02:26:03;12.60;;;3.40;;
71490;SDS011;59307;50.060;9.150;2023-10-08T02:28:30;9.85;;;3.13;;
71490;SDS011;59307;50.060;9.150;2023-10-08T02:30:56;8.43;;;3.10;;
71490;SDS011;59307;50.060;9.150;2023-10-08T02:33:21;7.53;;;3.03;;
71490;SDS011;59307;50.060;9.150;2023-10-08T02:35:46;8.47;;;3.27;;
71490;SDS011;59307;50.060;9.150;2023-10-08T02:38:12;8.87;;;3.07;;
71490;SDS011;59307;50.060;9.150;2023-10-08T02:40:38;8.73;;;3.50;;
71490;SDS011;59307;50.060;9.150;2023-10-08T02:43:09;7.95;;;3.50;;
71490;SDS011;59307;50.060;9.150;2023-10-08T02:45:36;8.27;;;3.10;;
71490;SDS011;59307;50.060;9.150;2023-10-08T02:48:04;9.35;;;3.30;;
71490;SDS011;59307;50.060;9.150;2023-10-08T02:50:36;10.65;;;3.20;;
71490;SDS011;59307;50.060;9.150;2023-10-08T02:53:02;9.87;;;3.30;;
71490;SDS011;59307;50.060;9.150;2023-10-08T02:55:35;8.65;;;3.47;;
71490;SDS011;59307;50.060;9.150;2023-10-08T02:58:01;7.57;;;3.60;;
71490;SDS011;59307;50.060;9.150;2023-10-08T03:00:30;10.73;;;3.80;;
71490;SDS011;59307;50.060;9.150;2023-10-08T03:02:58;7.13;;;3.20;;
71490;SDS011;59307;50.060;9.150;2023-10-08T03:05:34;7.05;;;3.33;;
71490;SDS011;59307;50.060;9.150;2023-10-08T03:08:01;10.82;;;3.70;;
71490;SDS011;59307;50.060;9.150;2023-10-08T03:10:26;11.55;;;3.90;;
71490;SDS011;59307;50.060;9.150;2023-10-08T03:12:58;8.07;;;3.40;;
71490;SDS011;59307;50.060;9.150;2023-10-08T03:15:29;9.68;;;3.30;;
71490;SDS011;59307;50.060;9.150;2023-10-08T03:17:56;6.95;;;3.15;;
71490;SDS011;59307;50.060;9.150;2023-10-08T03:20:22;8.43;;;3.05;;
71490;SDS011;59307;50.060;9.150;2023-10-08T03:23:06;9.27;;;2.95;;
71490;SDS011;59307;50.060;9.150;2023-10-08T03:25:37;10.17;;;3.03;;
71490;SDS011;59307;50.060;9.150;2023-10-08T03:28:07;11.95;;;3.50;;
71490;SDS011;59307;50.060;9.150;2023-10-08T03:30:33;10.68;;;3.67;;
71490;SDS011;59307;50.060;9.150;2023-10-08T03:33:05;8.15;;;2.75;;
71490;SDS011;59307;50.060;9.150;2023-10-08T03:35:35;6.63;;;3.05;;
71490;SDS011;59307;50.060;9.150;2023-10-08T03:38:02;10.67;;;3.63;;
71490;SDS011;59307;50.060;9.150;2023-10-08T03:40:46;8.75;;;3.70;;
71490;SDS011;59307;50.060;9.150;2023-10-08T03:43:13;8.13;;;3.47;;
71490;SDS011;59307;50.060;9.150;2023-10-08T03:45:49;9.30;;;3.30;;
71490;SDS011;59307;50.060;9.150;2023-10-08T03:48:18;10.05;;;3.63;;
71490;SDS011;59307;50.060;9.150;2023-10-08T03:50:47;8.13;;;3.27;;
71490;SDS011;59307;50.060;9.150;2023-10-08T03:53:21;7.93;;;3.47;;
71490;SDS011;59307;50.060;9.150;2023-10-08T03:55:47;10.43;;;3.58;;
71490;SDS011;59307;50.060;9.150;2023-10-08T03:58:16;8.77;;;3.10;;
71490;SDS011;59307;50.060;9.150;2023-10-08T04:00:54;8.45;;;3.20;;
71490;SDS011;59307;50.060;9.150;2023-10-08T04:03:33;9.57;;;3.40;;
71490;SDS011;59307;50.060;9.150;2023-10-08T04:06:19;8.80;;;3.38;;
71490;SDS011;59307;50.060;9.150;2023-10-08T04:08:48;13.35;;;4.65;;
71490;SDS011;59307;50.060;9.150;2023-10-08T04:11:32;8.55;;;3.15;;
71490;SDS011;59307;50.060;9.150;2023-10-08T04:14:00;8.68;;;3.15;;
71490;SDS011;59307;50.060;9.150;2023-10-08T04:16:27;10.37;;;4.37;;
71490;SDS011;59307;50.060;9.150;2023-10-08T04:18:53;7.55;;;3.13;;
71490;SDS011;59307;50.060;9.150;2023-10-08T04:21:20;6.90;;;3.47;;
71490;SDS011;59307;50.060;9.150;2023-10-08T04:23:46;9.53;;;3.57;;
71490;SDS011;59307;50.060;9.150;2023-10-08T04:26:17;8.65;;;3.03;;
71490;SDS011;59307;50.060;9.150;2023-10-08T04:28:42;6.75;;;3.08;;
71490;SDS011;59307;50.060;9.150;2023-10-08T04:31:07;10.83;;;3.70;;
71490;SDS011;59307;50.060;9.150;2023-10-08T04:33:43;9.32;;;3.58;;
71490;SDS011;59307;50.060;9.150;2023-10-08T04:36:09;9.43;;;3.40;;
71490;SDS011;59307;50.060;9.150;2023-10-08T04:38:34;8.97;;;3.70;;
71490;SDS011;59307;50.060;9.150;2023-10-08T04:41:04;9.17;;;3.07;;
71490;SDS011;59307;50.060;9.150;2023-10-08T04:43:34;7.90;;;3.40;;
71490;SDS011;59307;50.060;9.150;2023-10-08T04:46:02;8.10;;;3.58;;
71490;SDS011;59307;50.060;9.150;2023-10-08T04:48:44;8.30;;;3.53;;
71490;SDS011;59307;50.060;9.150;2023-10-08T04:51:09;9.40;;;3.20;;
71490;SDS011;59307;50.060;9.150;2023-10-08T04:53:37;8.90;;;3.63;;
71490;SDS011;59307;50.060;9.150;2023-10-08T04:56:09;14.00;;;3.53;;
71490;SDS011;59307;50.060;9.150;2023-10-08T04:58:45;8.63;;;3.45;;
71490;SDS011;59307;50.060;9.150;2023-10-08T05:01:12;8.90;;;3.30;;
71490;SDS011;59307;50.060;9.150;2023-10-08T05:03:44;8.05;;;3.30;;
71490;SDS011;59307;50.060;9.150;2023-10-08T05:06:30;8.30;;;3.70;;
71490;SDS011;59307;50.060;9.150;2023-10-08T05:11:35;7.90;;;3.13;;
71490;SDS011;59307;50.060;9.150;2023-10-08T05:14:16;9.60;;;3.70;;
71490;SDS011;59307;50.060;9.150;2023-10-08T05:16:54;9.00;;;3.20;;
71490;SDS011;59307;50.060;9.150;2023-10-08T05:19:28;8.65;;;3.67;;
71490;SDS011;59307;50.060;9.150;2023-10-08T05:22:05;8.03;;;3.10;;
71490;SDS011;59307;50.060;9.150;2023-10-08T05:24:45;8.32;;;3.17;;
71490;SDS011;59307;50.060;9.150;2023-10-08T05:27:34;8.30;;;3.92;;
71490;SDS011;59307;50.060;9.150;2023-10-08T05:30:19;8.60;;;3.22;;
71490;SDS011;59307;50.060;9.150;2023-10-08T05:32:56;10.45;;;3.85;;
71490;SDS011;59307;50.060;9.150;2023-10-08T05:35:30;7.40;;;3.30;;
71490;SDS011;59307;50.060;9.150;2023-10-08T05:38:15;7.32;;;3.40;;
71490;SDS011;59307;50.060;9.150;2023-10-08T05:40:59;7.82;;;2.92;;
71490;SDS011;59307;50.060;9.150;2023-10-08T05:46:13;7.63;;;3.30;;
71490;SDS011;59307;50.060;9.150;2023-10-08T05:48:48;8.13;;;3.33;;
71490;SDS011;59307;50.060;9.150;2023-10-08T05:51:29;11.87;;;3.50;;
71490;SDS011;59307;50.060;9.150;2023-10-08T05:56:59;8.43;;;3.33;;
71490;SDS011;59307;50.060;9.150;2023-10-08T06:02:17;11.57;;;3.60;;
71490;SDS011;59307;50.060;9.150;2023-10-08T06:04:58;7.03;;;3.17;;
71490;SDS011;59307;50.060;9.150;2023-10-08T06:07:42;8.65;;;3.60;;
71490;SDS011;59307;50.060;9.150;2023-10-08T06:10:30;7.00;;;3.30;;
71490;SDS011;59307;50.060;9.150;2023-10-08T06:15:48;9.93;;;3.63;;
71490;SDS011;59307;50.060;9.150;2023-10-08T06:18:25;12.80;;;3.47;;
71490;SDS011;59307;50.060;9.150;2023-10-08T06:20:57;8.30;;;3.25;;
71490;SDS011;59307;50.060;9.150;2023-10-08T06:23:26;9.27;;;3.38;;
71490;SDS011;59307;50.060;9.150;2023-10-08T06:25:53;9.85;;;3.33;;
71490;SDS011;59307;50.060;9.150;2023-10-08T06:28:39;8.50;;;3.30;;
71490;SDS011;59307;50.060;9.150;2023-10-08T06:31:04;8.97;;;3.40;;
71490;SDS011;59307;50.060;9.150;2023-10-08T06:33:37;10.95;;;3.70;;
71490;SDS011;59307;50.060;9.150;2023-10-08T06:36:02;10.18;;;3.33;;
71490;SDS011;59307;50.060;9.150;2023-10-08T06:38:39;9.97;;;3.20;;
71490;SDS011;59307;50.060;9.150;2023-10-08T06:41:05;8.30;;;3.38;;
71490;SDS011;59307;50.060;9.150;2023-10-08T06:43:40;10.10;;;4.03;;
71490;SDS011;59307;50.060;9.150;2023-10-08T06:46:08;9.27;;;3.55;;
71490;SDS011;59307;50.060;9.150;2023-10-08T06:48:37;9.35;;;3.10;;
71490;SDS011;59307;50.060;9.150;2023-10-08T06:51:02;9.57;;;3.50;;
71490;SDS011;59307;50.060;9.150;2023-10-08T06:53:38;10.98;;;3.80;;
71490;SDS011;59307;50.060;9.150;2023-10-08T06:56:03;7.87;;;3.10;;
71490;SDS011;59307;50.060;9.150;2023-10-08T06:58:29;11.60;;;3.47;;
71490;SDS011;59307;50.060;9.150;2023-10-08T07:00:57;11.43;;;3.73;;
71490;SDS011;59307;50.060;9.150;2023-10-08T07:03:23;8.90;;;3.50;;
71490;SDS011;59307;50.060;9.150;2023-10-08T07:05:50;10.50;;;3.30;;
71490;SDS011;59307;50.060;9.150;2023-10-08T07:08:31;7.45;;;3.20;;
71490;SDS011;59307;50.060;9.150;2023-10-08T07:10:58;12.13;;;4.22;;
71490;SDS011;59307;50.060;9.150;2023-10-08T07:13:24;10.60;;;3.30;;
71490;SDS011;59307;50.060;9.150;2023-10-08T07:15:50;8.05;;;3.40;;
71490;SDS011;59307;50.060;9.150;2023-10-08T07:18:16;9.73;;;3.43;;
71490;SDS011;59307;50.060;9.150;2023-10-08T07:20:49;8.67;;;3.10;;
71490;SDS011;59307;50.060;9.150;2023-10-08T07:23:18;8.95;;;3.50;;
71490;SDS011;59307;50.060;9.150;2023-10-08T07:26:02;9.80;;;2.93;;
71490;SDS011;59307;50.060;9.150;2023-10-08T07:28:49;8.45;;;3.13;;
71490;SDS011;59307;50.060;9.150;2023-10-08T07:31:17;8.40;;;3.28;;
71490;SDS011;59307;50.060;9.150;2023-10-08T07:33:43;8.48;;;3.45;;
71490;SDS011;59307;50.060;9.150;2023-10-08T07:36:09;8.83;;;3.00;;
71490;SDS011;59307;50.060;9.150;2023-10-08T07:38:38;10.50;;;3.72;;
71490;SDS011;59307;50.060;9.150;2023-10-08T07:41:04;8.77;;;3.40;;
71490;SDS011;59307;50.060;9.150;2023-10-08T07:43:31;8.25;;;3.53;;
71490;SDS011;59307;50.060;9.150;2023-10-08T07:45:57;8.55;;;3.25;;
71490;SDS011;59307;50.060;9.150;2023-10-08T07:48:22;7.97;;;3.00;;
71490;SDS011;59307;50.060;9.150;2023-10-08T07:50:54;10.10;;;3.65;;
71490;SDS011;59307;50.060;9.150;2023-10-08T07:53:19;8.80;;;3.53;;
71490;SDS011;59307;50.060;9.150;2023-10-08T07:55:45;7.23;;;3.07;;
71490;SDS011;59307;50.060;9.150;2023-10-08T07:58:12;9.40;;;3.13;;
71490;SDS011;59307;50.060;9.150;2023-10-08T08:00:39;9.05;;;3.13;;
71490;SDS011;59307;50.060;9.150;2023-10-08T08:03:05;10.00;;;3.33;;
71490;SDS011;59307;50.060;9.150;2023-10-08T08:05:31;8.67;;;3.23;;
71490;SDS011;59307;50.060;9.150;2023-10-08T08:07:56;10.67;;;3.73;;
71490;SDS011;59307;50.060;9.150;2023-10-08T08:10:24;10.15;;;3.00;;
71490;SDS011;59307;50.060;9.150;2023-10-08T08:12:50;9.32;;;3.17;;
71490;SDS011;59307;50.060;9.150;2023-10-08T08:15:21;8.25;;;3.33;;
71490;SDS011;59307;50.060;9.150;2023-10-08T08:17:47;10.30;;;3.30;;
71490;SDS011;59307;50.060;9.150;2023-10-08T08:20:13;9.53;;;3.60;;
71490;SDS011;59307;50.060;9.150;2023-10-08T08:22:44;8.65;;;3.40;;
71490;SDS011;59307;50.060;9.150;2023-10-08T08:25:15;7.97;;;3.53;;
71490;SDS011;59307;50.060;9.150;2023-10-08T08:27:41;9.80;;;3.70;;
71490;SDS011;59307;50.060;9.150;2023-10-08T08:30:09;9.83;;;3.53;;
71490;SDS011;59307;50.060;9.150;2023-10-08T08:32:40;9.13;;;3.55;;
71490;SDS011;59307;50.060;9.150;2023-10-08T08:35:08;7.95;;;3.15;;
71490;SDS011;59307;50.060;9.150;2023-10-08T08:37:37;10.48;;;3.53;;
71490;SDS011;59307;50.060;9.150;2023-10-08T08:40:03;11.23;;;3.47;;
71490;SDS011;59307;50.060;9.150;2023-10-08T08:42:35;8.83;;;3.13;;
71490;SDS011;59307;50.060;9.150;2023-10-08T08:45:01;11.68;;;3.60;;
71490;SDS011;59307;50.060;9.150;2023-10-08T08:47:28;12.40;;;3.78;;
71490;SDS011;59307;50.060;9.150;2023-10-08T08:49:53;9.07;;;3.20;;
71490;SDS011;59307;50.060;9.150;2023-10-08T08:52:20;11.55;;;3.65;;
71490;SDS011;59307;50.060;9.150;2023-10-08T08:54:45;9.87;;;3.63;;
71490;SDS011;59307;50.060;9.150;2023-10-08T08:57:10;7.60;;;3.37;;
71490;SDS011;59307;50.060;9.150;2023-10-08T08:59:44;11.07;;;4.15;;
71490;SDS011;59307;50.060;9.150;2023-10-08T09:02:09;10.85;;;3.60;;
71490;SDS011;59307;50.060;9.150;2023-10-08T09:04:36;6.97;;;3.28;;
71490;SDS011;59307;50.060;9.150;2023-10-08T09:07:02;7.00;;;3.50;;
71490;SDS011;59307;50.060;9.150;2023-10-08T09:09:32;8.68;;;3.67;;
71490;SDS011;59307;50.060;9.150;2023-10-08T09:11:58;9.25;;;4.40;;
71490;SDS011;59307;50.060;9.150;2023-10-08T09:14:24;10.40;;;3.20;;
71490;SDS011;59307;50.060;9.150;2023-10-08T09:16:55;8.80;;;3.33;;
71490;SDS011;59307;50.060;9.150;2023-10-08T09:19:22;9.60;;;3.53;;
71490;SDS011;59307;50.060;9.150;2023-10-08T09:24:34;10.18;;;3.90;;
71490;SDS011;59307;50.060;9.150;2023-10-08T09:27:01;11.27;;;3.90;;
71490;SDS011;59307;50.060;9.150;2023-10-08T09:29:27;10.02;;;3.80;;
71490;SDS011;59307;50.060;9.150;2023-10-08T09:31:56;9.37;;;3.90;;
71490;SDS011;59307;50.060;9.150;2023-10-08T09:34:22;8.68;;;3.10;;
71490;SDS011;59307;50.060;9.150;2023-10-08T09:36:50;9.35;;;3.40;;
71490;SDS011;59307;50.060;9.150;2023-10-08T09:39:16;8.60;;;3.30;;
71490;SDS011;59307;50.060;9.150;2023-10-08T09:41:48;8.20;;;3.13;;
71490;SDS011;59307;50.060;9.150;2023-10-08T09:44:14;10.23;;;4.15;;
71490;SDS011;59307;50.060;9.150;2023-10-08T09:46:40;10.93;;;3.43;;
71490;SDS011;59307;50.060;9.150;2023-10-08T09:49:07;8.10;;;3.17;;
71490;SDS011;59307;50.060;9.150;2023-10-08T09:51:33;9.60;;;3.53;;
71490;SDS011;59307;50.060;9.150;2023-10-08T09:56:35;10.50;;;3.63;;
71490;SDS011;59307;50.060;9.150;2023-10-08T09:59:00;10.73;;;3.73;;
71490;SDS011;59307;50.060;9.150;2023-10-08T10:01:26;9.43;;;3.50;;
71490;SDS011;59307;50.060;9.150;2023-10-08T10:03:51;7.97;;;3.40;;
71490;SDS011;59307;50.060;9.150;2023-10-08T10:06:17;11.37;;;3.70;;
71490;SDS011;59307;50.060;9.150;2023-10-08T10:08:43;9.77;;;3.78;;
71490;SDS011;59307;50.060;9.150;2023-10-08T10:11:08;11.40;;;3.57;;
71490;SDS011;59307;50.060;9.150;2023-10-08T10:13:39;12.38;;;3.65;;
71490;SDS011;59307;50.060;9.150;2023-10-08T10:16:05;9.65;;;3.58;;
71490;SDS011;59307;50.060;9.150;2023-10-08T10:18:32;8.93;;;3.50;;
71490;SDS011;59307;50.060;9.150;2023-10-08T10:20:58;11.17;;;4.10;;
71490;SDS011;59307;50.060;9.150;2023-10-08T10:23:34;10.80;;;3.95;;
71490;SDS011;59307;50.060;9.150;2023-10-08T10:26:01;10.70;;;3.92;;
71490;SDS011;59307;50.060;9.150;2023-10-08T10:28:27;11.02;;;4.25;;
71490;SDS011;59307;50.060;9.150;2023-10-08T10:30:54;8.77;;;3.63;;
71490;SDS011;59307;50.060;9.150;2023-10-08T10:33:20;12.55;;;3.60;;
71490;SDS011;59307;50.060;9.150;2023-10-08T10:35:50;12.23;;;3.80;;
71490;SDS011;59307;50.060;9.150;2023-10-08T10:38:18;11.17;;;3.70;;
71490;SDS011;59307;50.060;9.150;2023-10-08T10:40:48;10.45;;;3.97;;
71490;SDS011;59307;50.060;9.150;2023-10-08T10:43:22;11.68;;;3.88;;
71490;SDS011;59307;50.060;9.150;2023-10-08T10:45:51;12.10;;;4.07;;
71490;SDS011;59307;50.060;9.150;2023-10-08T10:48:20;9.70;;;3.45;;
71490;SDS011;59307;50.060;9.150;2023-10-08T10:50:45;11.20;;;3.90;;
71490;SDS011;59307;50.060;9.150;2023-10-08T10:53:32;8.67;;;3.40;;
71490;SDS011;59307;50.060;9.150;2023-10-08T10:55:59;8.48;;;3.92;;
71490;SDS011;59307;50.060;9.150;2023-10-08T10:58:34;10.77;;;4.05;;
71490;SDS011;59307;50.060;9.150;2023-10-08T11:01:04;11.07;;;3.70;;
71490;SDS011;59307;50.060;9.150;2023-10-08T11:03:40;11.27;;;4.70;;
71490;SDS011;59307;50.060;9.150;2023-10-08T11:06:07;11.27;;;4.15;;
71490;SDS011;59307;50.060;9.150;2023-10-08T11:08:40;11.75;;;4.55;;
71490;SDS011;59307;50.060;9.150;2023-10-08T11:11:11;12.23;;;3.88;;
71490;SDS011;59307;50.060;9.150;2023-10-08T11:13:36;14.43;;;4.40;;
71490;SDS011;59307;50.060;9.150;2023-10-08T11:16:05;10.45;;;4.22;;
71490;SDS011;59307;50.060;9.150;2023-10-08T11:18:30;9.80;;;4.20;;
71490;SDS011;59307;50.060;9.150;2023-10-08T11:21:05;10.63;;;4.70;;
71490;SDS011;59307;50.060;9.150;2023-10-08T11:23:48;13.60;;;3.83;;
71490;SDS011;59307;50.060;9.150;2023-10-08T11:26:24;11.88;;;3.80;;
71490;SDS011;59307;50.060;9.150;2023-10-08T11:29:00;11.30;;;4.22;;
71490;SDS011;59307;50.060;9.150;2023-10-08T11:31:26;14.73;;;4.87;;
71490;SDS011;59307;50.060;9.150;2023-10-08T11:33:53;11.02;;;4.00;;
71490;SDS011;59307;50.060;9.150;2023-10-08T11:36:23;11.40;;;3.80;;
71490;SDS011;59307;50.060;9.150;2023-10-08T11:38:55;8.70;;;3.55;;
71490;SDS011;59307;50.060;9.150;2023-10-08T11:41:27;12.47;;;4.63;;
71490;SDS011;59307;50.060;9.150;2023-10-08T11:43:55;11.75;;;4.10;;
71490;SDS011;59307;50.060;9.150;2023-10-08T11:46:24;12.85;;;4.32;;
71490;SDS011;59307;50.060;9.150;2023-10-08T11:49:03;12.85;;;3.80;;
71490;SDS011;59307;50.060;9.150;2023-10-08T11:51:35;11.90;;;4.00;;
71490;SDS011;59307;50.060;9.150;2023-10-08T11:54:01;11.30;;;4.13;;
71490;SDS011;59307;50.060;9.150;2023-10-08T11:56:28;11.98;;;4.30;;
71490;SDS011;59307;50.060;9.150;2023-10-08T11:58:53;11.80;;;4.10;;
71490;SDS011;59307;50.060;9.150;2023-10-08T12:01:21;11.07;;;4.20;;
71490;SDS011;59307;50.060;9.150;2023-10-08T12:03:47;15.60;;;4.67;;
71490;SDS011;59307;50.060;9.150;2023-10-08T12:06:14;11.20;;;3.83;;
71490;SDS011;59307;50.060;9.150;2023-10-08T12:08:41;10.40;;;4.35;;
71490;SDS011;59307;50.060;9.150;2023-10-08T12:11:06;14.43;;;4.25;;
71490;SDS011;59307;50.060;9.150;2023-10-08T12:13:36;14.75;;;4.13;;
71490;SDS011;59307;50.060;9.150;2023-10-08T12:16:02;14.77;;;4.60;;
71490;SDS011;59307;50.060;9.150;2023-10-08T12:18:37;13.65;;;4.25;;
71490;SDS011;59307;50.060;9.150;2023-10-08T12:21:07;11.37;;;4.17;;
71490;SDS011;59307;50.060;9.150;2023-10-08T12:23:36;13.23;;;3.97;;
71490;SDS011;59307;50.060;9.150;2023-10-08T12:26:02;13.73;;;4.88;;
71490;SDS011;59307;50.060;9.150;2023-10-08T12:28:28;10.30;;;4.33;;
71490;SDS011;59307;50.060;9.150;2023-10-08T12:30:53;10.50;;;4.30;;
71490;SDS011;59307;50.060;9.150;2023-10-08T12:33:18;13.50;;;4.27;;
71490;SDS011;59307;50.060;9.150;2023-10-08T12:35:44;11.35;;;4.00;;
71490;SDS011;59307;50.060;9.150;2023-10-08T12:38:10;11.82;;;4.40;;
71490;SDS011;59307;50.060;9.150;2023-10-08T12:40:35;11.43;;;4.37;;
71490;SDS011;59307;50.060;9.150;2023-10-08T12:43:12;13.17;;;4.67;;
71490;SDS011;59307;50.060;9.150;2023-10-08T12:45:37;15.23;;;4.90;;
71490;SDS011;59307;50.060;9.150;2023-10-08T12:48:02;12.47;;;4.90;;
71490;SDS011;59307;50.060;9.150;2023-10-08T12:50:28;15.07;;;4.70;;
71490;SDS011;59307;50.060;9.150;2023-10-08T12:53:10;12.90;;;4.35;;
71490;SDS011;59307;50.060;9.150;2023-10-08T12:55:39;10.10;;;3.90;;
71490;SDS011;59307;50.060;9.150;2023-10-08T12:58:08;11.75;;;4.32;;
71490;SDS011;59307;50.060;9.150;2023-10-08T13:00:36;13.95;;;4.88;;
71490;SDS011;59307;50.060;9.150;2023-10-08T13:03:06;14.43;;;5.07;;
71490;SDS011;59307;50.060;9.150;2023-10-08T13:05:40;13.68;;;4.65;;
71490;SDS011;59307;50.060;9.150;2023-10-08T13:08:09;10.67;;;4.43;;
71490;SDS011;59307;50.060;9.150;2023-10-08T13:10:35;12.85;;;4.43;;
71490;SDS011;59307;50.060;9.150;2023-10-08T13:13:00;11.73;;;4.83;;
71490;SDS011;59307;50.060;9.150;2023-10-08T13:15:25;11.93;;;4.80;;
71490;SDS011;59307;50.060;9.150;2023-10-08T13:17:51;14.73;;;4.95;;
71490;SDS011;59307;50.060;9.150;2023-10-08T13:20:17;15.87;;;4.70;;
71490;SDS011;59307;50.060;9.150;2023-10-08T13:22:42;17.42;;;4.90;;
71490;SDS011;59307;50.060;9.150;2023-10-08T13:25:08;11.43;;;4.73;;
71490;SDS011;59307;50.060;9.150;2023-10-08T13:27:33;12.70;;;4.97;;
71490;SDS011;59307;50.060;9.150;2023-10-08T13:29:59;12.77;;;4.40;;
71490;SDS011;59307;50.060;9.150;2023-10-08T13:32:29;13.60;;;5.22;;
71490;SDS011;59307;50.060;9.150;2023-10-08T13:34:54;12.33;;;4.57;;
71490;SDS011;59307;50.060;9.150;2023-10-08T13:37:19;13.97;;;4.70;;
71490;SDS011;59307;50.060;9.150;2023-10-08T13:39:45;14.87;;;4.53;;
71490;SDS011;59307;50.060;9.150;2023-10-08T13:42:11;14.32;;;5.20;;
71490;SDS011;59307;50.060;9.150;2023-10-08T13:44:43;16.02;;;5.15;;
71490;SDS011;59307;50.060;9.150;2023-10-08T13:47:10;14.07;;;4.93;;
71490;SDS011;59307;50.060;9.150;2023-10-08T13:49:40;10.70;;;4.13;;
71490;SDS011;59307;50.060;9.150;2023-10-08T13:52:06;14.05;;;4.75;;
71490;SDS011;59307;50.060;9.150;2023-10-08T13:54:32;15.05;;;4.60;;
71490;SDS011;59307;50.060;9.150;2023-10-08T13:57:00;12.18;;;4.57;;
71490;SDS011;59307;50.060;9.150;2023-10-08T13:59:26;11.97;;;4.80;;
71490;SDS011;59307;50.060;9.150;2023-10-08T14:01:52;12.47;;;4.53;;
71490;SDS011;59307;50.060;9.150;2023-10-08T14:04:17;10.38;;;4.38;;
71490;SDS011;59307;50.060;9.150;2023-10-08T14:06:44;10.57;;;4.50;;
71490;SDS011;59307;50.060;9.150;2023-10-08T14:09:16;11.75;;;4.95;;
71490;SDS011;59307;50.060;9.150;2023-10-08T14:11:46;10.32;;;4.35;;
71490;SDS011;59307;50.060;9.150;2023-10-08T14:14:12;14.60;;;4.60;;
71490;SDS011;59307;50.060;9.150;2023-10-08T14:16:38;15.35;;;4.45;;
71490;SDS011;59307;50.060;9.150;2023-10-08T14:19:06;14.00;;;4.57;;
71490;SDS011;59307;50.060;9.150;2023-10-08T14:21:32;14.00;;;4.40;;
71490;SDS011;59307;50.060;9.150;2023-10-08T14:24:01;13.18;;;4.50;;
71490;SDS011;59307;50.060;9.150;2023-10-08T14:26:30;13.00;;;5.13;;
71490;SDS011;59307;50.060;9.150;2023-10-08T14:29:01;13.45;;;5.10;;
71490;SDS011;59307;50.060;9.150;2023-10-08T14:31:35;10.20;;;4.68;;
71490;SDS011;59307;50.060;9.150;2023-10-08T14:34:03;16.65;;;4.95;;
71490;SDS011;59307;50.060;9.150;2023-10-08T14:36:41;13.40;;;4.60;;
71490;SDS011;59307;50.060;9.150;2023-10-08T14:39:25;13.13;;;4.63;;
71490;SDS011;59307;50.060;9.150;2023-10-08T14:42:09;9.02;;;4.43;;
71490;SDS011;59307;50.060;9.150;2023-10-08T14:44:53;10.32;;;4.80;;
71490;SDS011;59307;50.060;9.150;2023-10-08T14:47:19;10.93;;;4.43;;
71490;SDS011;59307;50.060;9.150;2023-10-08T14:49:44;15.82;;;7.15;;
71490;SDS011;59307;50.060;9.150;2023-10-08T14:52:10;18.05;;;5.95;;
71490;SDS011;59307;50.060;9.150;2023-10-08T14:54:36;11.50;;;5.03;;
71490;SDS011;59307;50.060;9.150;2023-10-08T14:57:02;13.70;;;4.80;;
71490;SDS011;59307;50.060;9.150;2023-10-08T14:59:28;11.87;;;4.80;;
71490;SDS011;59307;50.060;9.150;2023-10-08T15:01:53;12.27;;;4.77;;
71490;SDS011;59307;50.060;9.150;2023-10-08T15:04:20;13.40;;;4.82;;
71490;SDS011;59307;50.060;9.150;2023-10-08T15:06:46;14.20;;;4.70;;
71490;SDS011;59307;50.060;9.150;2023-10-08T15:09:11;10.60;;;4.43;;
71490;SDS011;59307;50.060;9.150;2023-10-08T15:11:46;12.23;;;4.93;;